Time;durP1;ratioP1;P1;durP2;ratioP2;P2;SDS_P1;SDS_P2;PMS_P1;PMS_P2;Temp;Humidity;BMP_temperature;BMP_pressure;BME280_temperature;BME280_humidity;BME280_pressure;Samples;Min_cycle;Max_cycle;Signal;HPM_P1;HPM_P2
2021/08/10 00:00:15;;;;;;;6.35;2.08;;;;;;;27.76;49.71;100953.25;5092826;28;20051;-71
2021/08/10 00:02:44;;;;;;;4.72;1.90;;;;;;;27.79;49.66;100947.63;5109622;27;20122;-71
2021/08/10 00:05:32;;;;;;;3.83;1.92;;;;;;;27.82;49.46;100962.91;5104178;27;20176;-70
2021/08/10 00:07:59;;;;;;;4.07;2.10;;;;;;;27.77;49.40;100945.00;5112076;28;20052;-71
2021/08/10 00:10:27;;;;;;;3.13;1.85;;;;;;;27.74;49.19;100947.91;5113432;28;20047;-72
2021/08/10 00:12:55;;;;;;;5.75;1.75;;;;;;;27.74;48.99;100956.03;5113487;27;20035;-71
2021/08/10 00:15:22;;;;;;;6.32;2.00;;;;;;;27.76;49.13;100953.25;5114013;28;20075;-71
2021/08/10 00:17:52;;;;;;;7.72;2.08;;;;;;;27.77;49.12;100945.00;5113509;27;20110;-71
2021/08/10 00:20:19;;;;;;;5.78;1.88;;;;;;;27.79;48.86;100935.91;5113720;27;20036;-72
2021/08/10 00:22:46;;;;;;;5.95;1.75;;;;;;;27.74;48.86;100937.03;5113498;28;20040;-72
2021/08/10 00:25:14;;;;;;;3.80;1.55;;;;;;;27.70;48.91;100937.25;5113357;27;20059;-71
2021/08/10 00:27:42;;;;;;;7.90;2.00;;;;;;;27.71;48.88;100937.19;5113206;27;20031;-70
2021/08/10 00:30:10;;;;;;;2.67;1.50;;;;;;;27.72;48.87;100944.38;5110690;28;20093;-69
2021/08/10 00:32:38;;;;;;;7.55;1.90;;;;;;;27.71;49.06;100937.19;5113428;28;20043;-71
2021/08/10 00:35:09;;;;;;;4.88;1.73;;;;;;;27.71;49.19;100928.16;5112811;27;20130;-71
2021/08/10 00:37:36;;;;;;;9.73;2.28;;;;;;;27.70;49.28;100931.81;5113303;28;20043;-71
2021/08/10 00:40:05;;;;;;;2.90;1.65;;;;;;;27.68;49.40;100940.06;5111798;28;20490;-71
2021/08/10 00:42:33;;;;;;;14.15;2.60;;;;;;;27.69;49.04;100939.13;5112176;28;20032;-71
2021/08/10 00:45:00;;;;;;;5.03;1.58;;;;;;;27.65;49.28;100923.94;5112574;28;20047;-71
2021/08/10 00:47:27;;;;;;;6.72;1.80;;;;;;;27.67;49.16;100918.44;5113224;27;20050;-72
2021/08/10 00:49:55;;;;;;;5.25;2.10;;;;;;;27.63;49.23;100912.31;5110405;27;20040;-71
2021/08/10 00:52:24;;;;;;;3.80;2.08;;;;;;;27.64;49.41;100911.31;5112573;28;20110;-71
2021/08/10 00:54:52;;;;;;;6.63;2.05;;;;;;;27.61;49.43;100908.78;5111079;28;20093;-72
2021/08/10 00:57:19;;;;;;;5.78;1.80;;;;;;;27.62;49.20;100905.13;5112004;28;20039;-72
2021/08/10 00:59:47;;;;;;;4.20;1.77;;;;;;;27.61;49.22;100900.66;5112430;27;20364;-71
2021/08/10 01:02:14;;;;;;;4.50;1.80;;;;;;;27.61;49.00;100900.66;5112719;27;20035;-72
2021/08/10 01:04:42;;;;;;;3.92;1.98;;;;;;;27.60;49.42;100907.03;5112624;28;20042;-71
2021/08/10 01:07:15;;;;;;;2.65;1.80;;;;;;;27.58;49.33;100903.50;5112646;28;20036;-72
2021/08/10 01:09:50;;;;;;;7.30;2.00;;;;;;;27.64;49.09;100905.03;5111069;28;20403;-70
2021/08/10 01:12:20;;;;;;;3.20;1.80;;;;;;;27.66;48.94;100904.00;5112624;28;20034;-71
2021/08/10 01:14:53;;;;;;;7.57;1.75;;;;;;;27.67;48.95;100902.16;5112330;28;20039;-71
2021/08/10 01:17:24;;;;;;;3.92;1.67;;;;;;;27.63;48.84;100916.88;5112603;28;20040;-71
2021/08/10 01:20:25;;;;;;;2.85;1.55;;;;;;;27.61;48.66;100900.66;5112589;28;20036;-71
2021/08/10 01:22:56;;;;;;;8.98;1.90;;;;;;;27.63;48.17;100898.75;5108474;28;20445;-72
2021/08/10 01:25:35;;;;;;;7.25;2.00;;;;;;;27.63;48.29;100882.47;5111948;28;20044;-71
2021/08/10 01:28:23;;;;;;;5.07;2.20;;;;;;;27.59;48.31;100894.44;5112022;28;20043;-71
2021/08/10 01:31:03;;;;;;;3.80;2.13;;;;;;;27.60;48.47;100892.59;5111478;28;20043;-71
2021/08/10 01:33:34;;;;;;;5.68;2.00;;;;;;;27.58;48.82;100895.38;5111679;28;20055;-70
2021/08/10 01:36:03;;;;;;;5.22;1.80;;;;;;;27.55;49.20;100902.81;5111558;27;20050;-71
2021/08/10 01:38:32;;;;;;;7.43;2.10;;;;;;;27.54;49.18;100892.91;5111573;28;20054;-70
2021/08/10 01:41:01;;;;;;;4.97;1.90;;;;;;;27.51;49.35;100888.47;5111468;27;20057;-71
2021/08/10 01:43:30;;;;;;;6.55;2.30;;;;;;;27.47;49.60;100888.72;5112026;28;20046;-71
2021/08/10 01:45:59;;;;;;;6.43;2.17;;;;;;;27.42;49.96;100888.97;5111487;28;20119;-71
2021/08/10 01:48:28;;;;;;;9.55;2.20;;;;;;;27.37;50.17;100880.22;5109161;28;20032;-71
2021/08/10 01:51:00;;;;;;;5.57;2.00;;;;;;;27.36;50.48;100870.31;5111651;28;20054;-71
2021/08/10 01:53:29;;;;;;;5.25;2.10;;;;;;;27.37;50.45;100880.22;5111564;28;20044;-71
2021/08/10 01:55:58;;;;;;;6.35;2.65;;;;;;;27.37;50.76;100866.66;5109693;27;20047;-71
2021/08/10 01:58:28;;;;;;;5.47;1.92;;;;;;;27.36;50.78;100873.91;5111378;28;20035;-71
2021/08/10 02:00:57;;;;;;;5.47;1.90;;;;;;;27.37;50.58;100872.94;5111777;28;20048;-71
2021/08/10 02:03:27;;;;;;;6.63;2.08;;;;;;;27.36;50.73;100863.06;5111845;28;20043;-71
2021/08/10 02:05:58;;;;;;;7.20;2.40;;;;;;;27.33;50.34;100875.88;5111801;28;20039;-71
2021/08/10 02:08:27;;;;;;;4.93;2.20;;;;;;;27.30;50.26;100873.34;5112191;28;20483;-71
2021/08/10 02:10:55;;;;;;;3.30;1.73;;;;;;;27.29;50.35;100882.44;5112063;28;20486;-71
2021/08/10 02:13:43;;;;;;;7.38;1.90;;;;;;;27.25;50.40;100876.28;5106683;28;20153;-71
2021/08/10 02:16:13;;;;;;;10.10;2.15;;;;;;;27.25;50.55;100870.84;5111912;28;20059;-70
2021/08/10 02:18:41;;;;;;;7.88;2.30;;;;;;;27.26;50.98;100863.59;5111591;28;20354;-69
2021/08/10 02:21:17;;;;;;;5.43;2.25;;;;;;;27.26;51.12;100871.75;5111813;28;20058;-71
2021/08/10 02:24:09;;;;;;;6.22;1.88;;;;;;;27.23;51.41;100866.50;5059974;28;20068;-70
2021/08/10 02:26:43;;;;;;;5.30;2.25;;;;;;;27.21;51.63;100868.41;5111766;28;20043;-71
2021/08/10 02:29:12;;;;;;;5.78;2.05;;;;;;;27.18;51.78;100871.25;5111231;28;20043;-69
2021/08/10 02:31:41;;;;;;;9.05;2.67;;;;;;;27.17;52.03;100872.22;5110235;28;20043;-71
2021/08/10 02:34:09;;;;;;;4.82;2.78;;;;;;;27.16;52.09;100865.94;5111706;28;20084;-71
2021/08/10 02:36:39;;;;;;;5.72;2.30;;;;;;;27.17;52.01;100880.38;5111852;28;20036;-71
2021/08/10 02:39:09;;;;;;;8.05;2.63;;;;;;;27.15;51.99;100876.84;5111907;28;20035;-70
2021/08/10 02:41:39;;;;;;;4.15;2.03;;;;;;;27.12;52.03;100875.16;5109514;28;20096;-71
2021/08/10 02:44:10;;;;;;;3.28;2.22;;;;;;;27.11;51.70;100883.41;5111669;28;20497;-71
2021/08/10 02:46:38;;;;;;;7.10;2.42;;;;;;;27.11;51.43;100876.09;5109837;28;20386;-71
2021/08/10 02:49:09;;;;;;;5.82;2.60;;;;;;;27.12;51.20;100877.88;5111532;28;20398;-72
2021/08/10 02:51:38;;;;;;;6.90;3.03;;;;;;;27.11;50.92;100876.09;5109229;28;20036;-70
2021/08/10 02:54:07;;;;;;;4.70;2.25;;;;;;;27.12;51.14;100882.41;5111814;28;20044;-71
2021/08/10 02:56:39;;;;;;;10.70;2.63;;;;;;;27.10;51.03;100892.47;5111097;28;20119;-71
2021/08/10 02:59:11;;;;;;;3.80;2.50;;;;;;;27.11;51.04;100891.53;5111370;28;20043;-70
2021/08/10 03:01:46;;;;;;;8.82;2.58;;;;;;;27.10;50.72;100892.47;5111369;28;20032;-70
2021/08/10 03:04:14;;;;;;;4.53;2.10;;;;;;;27.09;50.99;100901.56;5111060;28;20039;-70
2021/08/10 03:06:44;;;;;;;7.18;2.47;;;;;;;27.13;50.84;100898.59;5114510;27;20036;-70
2021/08/10 03:09:13;;;;;;;5.85;2.42;;;;;;;27.11;50.73;100895.09;5114734;27;20047;-69
2021/08/10 03:11:43;;;;;;;6.00;2.10;;;;;;;27.11;50.53;100892.38;5115355;28;20046;-72
2021/08/10 03:14:13;;;;;;;5.50;2.10;;;;;;;27.09;50.54;100896.13;5114909;27;20096;-71
2021/08/10 03:16:43;;;;;;;5.25;2.00;;;;;;;27.10;50.37;100897.91;5114659;28;20096;-68
2021/08/10 03:19:13;;;;;;;5.78;2.25;;;;;;;27.11;49.88;100895.09;5114727;27;20131;-69
2021/08/10 03:21:45;;;;;;;5.70;2.53;;;;;;;27.12;50.21;100904.97;5115207;28;20035;-69
2021/08/10 03:24:14;;;;;;;7.68;2.40;;;;;;;27.10;49.80;100903.31;5112534;28;20131;-70
2021/08/10 03:26:43;;;;;;;6.32;2.45;;;;;;;27.09;49.77;100907.84;5114258;28;20032;-69
2021/08/10 03:29:11;;;;;;;5.32;2.88;;;;;;;27.10;49.50;100914.16;5114871;27;20494;-71
2021/08/10 03:31:40;;;;;;;7.25;2.40;;;;;;;27.12;49.36;100915.81;5114595;27;20113;-71
2021/08/10 03:34:10;;;;;;;8.45;2.20;;;;;;;27.13;49.58;100930.25;5113495;28;20544;-71
2021/08/10 03:36:38;;;;;;;11.35;2.70;;;;;;;27.14;49.47;100916.63;5114616;28;20070;-71
2021/08/10 03:39:07;;;;;;;6.22;2.45;;;;;;;27.22;48.89;100916.25;5114003;28;20123;-70
2021/08/10 03:41:35;;;;;;;4.10;2.00;;;;;;;27.23;48.43;100924.31;5114648;28;20036;-72
2021/08/10 03:44:03;;;;;;;5.13;2.20;;;;;;;27.26;48.47;100929.56;5114760;27;20444;-71
2021/08/10 03:46:45;;;;;;;5.80;2.20;;;;;;;27.31;48.27;100929.31;5114001;28;20046;-71
2021/08/10 03:49:15;;;;;;;7.97;2.40;;;;;;;27.38;47.91;100933.47;5114307;27;20036;-70
2021/08/10 03:51:44;;;;;;;7.30;2.20;;;;;;;27.49;47.85;100924.81;5114136;27;20039;-71
2021/08/10 03:54:13;;;;;;;4.68;2.08;;;;;;;27.60;47.27;100931.44;5111872;27;20126;-69
2021/08/10 03:56:41;;;;;;;7.00;2.35;;;;;;;27.73;47.19;100940.69;5114716;28;20032;-71
2021/08/10 03:59:11;;;;;;;7.53;2.60;;;;;;;27.84;46.82;100939.25;5114160;27;20042;-70
2021/08/10 04:01:39;;;;;;;4.43;2.20;;;;;;;27.95;46.50;100936.84;5114080;28;20462;-71
2021/08/10 04:04:09;;;;;;;5.15;2.03;;;;;;;28.07;46.05;100937.06;5114435;27;20379;-71
2021/08/10 04:06:48;;;;;;;5.40;2.20;;;;;;;28.20;45.60;100950.00;5113901;27;20517;-71
2021/08/10 04:09:18;;;;;;;6.53;2.10;;;;;;;28.31;45.25;100940.31;5114024;28;20045;-70
2021/08/10 04:11:46;;;;;;;6.95;2.47;;;;;;;28.43;45.28;100944.19;5101233;28;20032;-71
2021/08/10 04:14:14;;;;;;;4.20;1.60;;;;;;;28.53;45.36;100946.31;5114070;27;20050;-71
2021/08/10 04:16:49;;;;;;;4.50;2.08;;;;;;;28.70;45.01;100941.75;5112161;28;20031;-70
2021/08/10 04:19:16;;;;;;;4.47;1.80;;;;;;;28.82;44.95;100946.53;5113362;28;20065;-70
2021/08/10 04:21:44;;;;;;;4.55;2.40;;;;;;;28.94;45.01;100951.28;5113093;28;20044;-71
2021/08/10 04:24:12;;;;;;;3.95;2.10;;;;;;;29.09;44.87;100949.50;5113571;27;20031;-70
2021/08/10 04:26:41;;;;;;;6.45;1.75;;;;;;;29.26;44.69;100946.69;5113870;28;20061;-71
2021/08/10 04:29:08;;;;;;;6.78;1.90;;;;;;;29.40;44.61;100954.06;5113720;27;20158;-72
2021/08/10 04:31:36;;;;;;;3.05;1.75;;;;;;;29.55;44.55;100962.16;5110750;28;20035;-72
2021/08/10 04:34:04;;;;;;;4.85;2.03;;;;;;;29.71;44.10;100953.97;5113259;27;20043;-71
2021/08/10 04:36:31;;;;;;;5.20;1.58;;;;;;;29.81;43.56;100957.84;5113315;27;20058;-71
2021/08/10 04:38:59;;;;;;;3.92;2.10;;;;;;;29.92;43.46;100960.84;5112948;28;20059;-71
2021/08/10 04:41:27;;;;;;;4.32;2.00;;;;;;;30.10;43.30;100980.63;5111399;27;20042;-71
2021/08/10 04:43:57;;;;;;;4.88;2.17;;;;;;;30.27;42.78;100969.53;5112746;28;20051;-71
2021/08/10 04:46:26;;;;;;;3.95;1.80;;;;;;;30.41;42.15;100968.66;5112536;28;20082;-71
2021/08/10 04:48:54;;;;;;;5.10;2.15;;;;;;;30.55;41.92;100968.69;5112512;28;20035;-71
2021/08/10 04:51:22;;;;;;;4.30;1.83;;;;;;;30.70;41.40;100975.88;5111828;28;20035;-71
2021/08/10 04:53:50;;;;;;;5.43;2.10;;;;;;;30.83;41.01;100974.13;5112407;27;20050;-71
2021/08/10 04:56:17;;;;;;;3.97;2.15;;;;;;;30.96;40.63;100989.66;5110330;28;20140;-71
2021/08/10 04:58:45;;;;;;;5.60;1.77;;;;;;;31.10;40.22;100986.94;5112225;28;20054;-71
2021/08/10 05:01:15;;;;;;;3.65;1.90;;;;;;;31.24;39.81;100981.44;5112632;27;20044;-70
2021/08/10 05:03:44;;;;;;;4.22;1.77;;;;;;;31.37;38.95;100993.28;5112578;27;20382;-71
2021/08/10 05:06:11;;;;;;;5.07;1.77;;;;;;;31.46;38.64;100989.94;5110213;27;20380;-69
2021/08/10 05:08:39;;;;;;;3.95;1.45;;;;;;;31.63;38.40;100991.56;5113044;27;20036;-71
2021/08/10 05:11:10;;;;;;;3.55;1.55;;;;;;;31.82;37.87;101002.97;5112774;28;20072;-71
2021/08/10 05:13:38;;;;;;;4.65;1.67;;;;;;;32.02;38.07;101005.19;5112825;28;20039;-71
2021/08/10 05:16:06;;;;;;;6.85;1.95;;;;;;;32.14;37.28;100991.66;5109934;27;20059;-70
2021/08/10 05:18:36;;;;;;;6.25;2.13;;;;;;;32.33;37.29;101000.31;5112869;28;20042;-71
2021/08/10 05:21:04;;;;;;;5.05;1.90;;;;;;;32.49;36.96;100997.34;5111016;28;20040;-71
2021/08/10 05:23:34;;;;;;;7.32;1.98;;;;;;;32.70;36.94;101009.47;5112596;28;20042;-71
2021/08/10 05:26:02;;;;;;;5.30;1.80;;;;;;;32.91;36.92;101021.59;5112500;28;20051;-71
2021/08/10 05:28:30;;;;;;;3.17;1.80;;;;;;;33.22;36.25;101022.97;5111596;28;20036;-71
2021/08/10 05:30:59;;;;;;;4.63;1.70;;;;;;;33.36;35.70;101021.94;5112024;28;20499;-71
2021/08/10 05:33:27;;;;;;;5.70;1.85;;;;;;;33.51;35.43;101029.00;5112157;28;20042;-71
2021/08/10 05:35:57;;;;;;;4.40;1.55;;;;;;;33.69;34.75;101008.41;5112086;28;20035;-70
2021/08/10 05:38:48;;;;;;;2.75;1.70;;;;;;;33.91;34.56;101014.00;5101875;27;20040;-70
2021/08/10 05:41:15;;;;;;;4.55;1.75;;;;;;;34.07;33.97;101013.66;5111969;28;20035;-71
2021/08/10 05:43:43;;;;;;;3.53;1.75;;;;;;;34.26;33.71;101003.06;5111930;28;20044;-70
2021/08/10 05:46:11;;;;;;;4.03;1.77;;;;;;;34.34;33.18;101010.63;5112703;27;20039;-71
2021/08/10 05:48:38;;;;;;;3.67;1.45;;;;;;;34.43;33.00;101009.91;5109521;28;20039;-71
2021/08/10 05:51:07;;;;;;;5.93;1.92;;;;;;;34.65;32.93;101012.69;5111920;28;20047;-71
2021/08/10 05:53:36;;;;;;;2.80;1.77;;;;;;;34.80;32.67;101007.81;5111961;28;20053;-70
2021/08/10 05:56:03;;;;;;;3.55;1.50;;;;;;;34.91;32.80;101015.19;5111643;28;20046;-70
2021/08/10 05:58:31;;;;;;;6.95;1.80;;;;;;;35.10;32.48;101015.41;5112125;28;20391;-71
2021/08/10 06:00:59;;;;;;;8.57;2.20;;;;;;;35.36;31.91;101019.63;5111946;28;20058;-71
2021/08/10 06:03:26;;;;;;;5.28;2.00;;;;;;;35.46;31.69;101014.22;5110844;28;20031;-72
2021/08/10 06:05:54;;;;;;;5.38;1.77;;;;;;;35.58;31.72;101015.06;5111367;28;20120;-72
2021/08/10 06:08:23;;;;;;;5.00;1.83;;;;;;;35.81;31.32;101008.50;5111904;28;20042;-72
2021/08/10 06:10:50;;;;;;;5.28;2.17;;;;;;;36.00;31.05;101016.88;5111593;28;20046;-73
2021/08/10 06:13:18;;;;;;;4.07;1.70;;;;;;;36.07;30.11;101011.72;5111801;28;20114;-72
2021/08/10 06:15:45;;;;;;;4.90;1.95;;;;;;;35.97;30.41;101021.81;5111917;28;20047;-73
2021/08/10 06:18:13;;;;;;;8.27;1.95;;;;;;;36.02;30.06;101011.25;5111668;28;20079;-71
2021/08/10 06:20:40;;;;;;;6.07;2.10;;;;;;;36.15;30.11;101014.69;5112321;28;20414;-72
2021/08/10 06:23:08;;;;;;;5.40;1.98;;;;;;;36.30;30.11;101025.22;5111687;28;20046;-72
2021/08/10 06:25:37;;;;;;;5.15;1.92;;;;;;;36.56;30.22;101009.16;5111964;28;20544;-71
2021/08/10 06:28:05;;;;;;;4.28;1.70;;;;;;;36.45;29.63;101016.63;5111909;28;20040;-73
2021/08/10 06:30:42;;;;;;;4.80;1.90;;;;;;;36.42;29.75;101016.91;5111343;28;20035;-69
2021/08/10 06:33:10;;;;;;;3.63;2.05;;;;;;;36.33;29.71;101016.72;5112149;28;20039;-73
2021/08/10 06:35:37;;;;;;;5.95;2.00;;;;;;;36.28;29.84;101015.38;5111560;28;20047;-73
2021/08/10 06:38:05;;;;;;;5.88;1.98;;;;;;;36.33;29.88;101013.09;5111592;28;20047;-73
2021/08/10 06:40:33;;;;;;;4.10;1.58;;;;;;;36.33;29.70;101016.72;5114777;28;20055;-73
2021/08/10 06:43:02;;;;;;;5.57;1.90;;;;;;;36.44;29.54;101018.50;5115398;27;20036;-72
2021/08/10 06:45:29;;;;;;;3.80;1.50;;;;;;;36.61;29.91;101019.78;5115475;27;20506;-73
2021/08/10 06:47:57;;;;;;;3.35;1.88;;;;;;;36.65;29.72;101018.50;5112908;27;20039;-73
2021/08/10 06:50:25;;;;;;;4.18;2.00;;;;;;;36.61;29.40;101023.41;5114801;27;20039;-73
2021/08/10 06:52:52;;;;;;;5.65;1.90;;;;;;;36.77;29.73;101028.41;5114878;28;20051;-73
2021/08/10 06:55:20;;;;;;;7.88;2.10;;;;;;;36.90;29.12;101034.53;5115347;27;20039;-73
2021/08/10 06:57:47;;;;;;;6.43;1.80;;;;;;;36.99;29.10;101039.22;5114267;28;20044;-72
2021/08/10 07:00:18;;;;;;;4.35;1.77;;;;;;;37.09;29.49;101039.25;5115047;27;20039;-72
2021/08/10 07:02:45;;;;;;;4.90;1.90;;;;;;;36.95;29.11;101043.28;5115032;27;20045;-71
2021/08/10 07:05:14;;;;;;;4.10;1.85;;;;;;;36.89;28.97;101042.97;5101758;28;20039;-71
2021/08/10 07:07:42;;;;;;;4.40;1.88;;;;;;;37.11;28.78;101029.00;5115128;28;20049;-73
2021/08/10 07:10:10;;;;;;;3.78;2.08;;;;;;;37.29;28.76;101041.06;5115089;27;20071;-72
2021/08/10 07:12:38;;;;;;;7.22;1.90;;;;;;;37.23;28.25;101047.16;5115342;28;20040;-72
2021/08/10 07:15:06;;;;;;;3.50;1.70;;;;;;;37.13;28.38;101045.41;5112563;27;20039;-74
2021/08/10 07:17:35;;;;;;;4.93;1.48;;;;;;;37.25;28.56;101045.13;5114948;27;20039;-72
2021/08/10 07:20:03;;;;;;;3.65;1.85;;;;;;;37.20;27.95;101046.56;5115030;27;20091;-74
2021/08/10 07:22:31;;;;;;;4.32;1.60;;;;;;;37.14;28.72;101045.25;5114861;28;20036;-73
2021/08/10 07:24:58;;;;;;;6.22;1.88;;;;;;;37.01;28.36;101047.34;5114967;28;20114;-72
2021/08/10 07:27:26;;;;;;;7.65;1.88;;;;;;;36.86;28.50;101045.97;5115099;27;20040;-73
2021/08/10 07:29:54;;;;;;;5.65;2.30;;;;;;;37.03;28.85;101043.44;5114719;28;20035;-73
2021/08/10 07:32:21;;;;;;;4.93;1.90;;;;;;;37.20;28.54;101050.22;5114203;28;20036;-73
2021/08/10 07:34:50;;;;;;;4.85;2.40;;;;;;;37.37;28.04;101048.63;5112079;28;20105;-72
2021/08/10 07:37:18;;;;;;;5.78;1.60;;;;;;;37.44;27.89;101056.19;5114504;28;20105;-72
2021/08/10 07:39:45;;;;;;;5.22;1.70;;;;;;;37.54;27.57;101050.72;5114695;27;20047;-71
2021/08/10 07:42:13;;;;;;;8.15;2.10;;;;;;;37.57;27.57;101050.44;5114287;28;20035;-71
2021/08/10 07:44:40;;;;;;;5.60;1.75;;;;;;;37.68;27.84;101047.56;5114658;28;20078;-72
2021/08/10 07:47:08;;;;;;;5.25;1.63;;;;;;;37.72;27.39;101035.25;5114642;27;20046;-73
2021/08/10 07:49:36;;;;;;;5.47;2.05;;;;;;;37.72;27.39;101032.47;5114281;27;20040;-73
2021/08/10 07:52:25;;;;;;;3.08;1.70;;;;;;;37.75;26.85;101029.41;5110634;28;20040;-72
2021/08/10 07:54:53;;;;;;;7.50;1.98;;;;;;;37.94;26.96;101041.47;5114318;27;20499;-72
2021/08/10 07:57:20;;;;;;;7.25;2.00;;;;;;;38.10;27.01;101037.13;5114065;27;20192;-73
2021/08/10 07:59:48;;;;;;;3.63;2.22;;;;;;;38.10;26.93;101044.53;5112282;28;20043;-72
2021/08/10 08:02:15;;;;;;;4.63;1.98;;;;;;;38.19;26.63;101022.47;5113492;27;20036;-72
2021/08/10 08:04:42;;;;;;;6.53;2.58;;;;;;;38.19;26.71;101036.25;5113756;27;20533;-73
2021/08/10 08:07:10;;;;;;;6.05;2.00;;;;;;;38.30;26.86;101040.72;5113699;27;20040;-72
2021/08/10 08:09:39;;;;;;;5.47;1.98;;;;;;;38.50;26.73;101044.34;5114085;27;20047;-72
2021/08/10 08:12:07;;;;;;;5.65;2.17;;;;;;;38.60;26.63;101037.75;5113609;27;20047;-73
2021/08/10 08:14:34;;;;;;;3.30;1.80;;;;;;;38.64;26.80;101047.50;5113457;27;20387;-72
2021/08/10 08:17:03;;;;;;;3.67;2.10;;;;;;;38.67;26.37;101040.78;5110968;27;20070;-73
2021/08/10 08:19:31;;;;;;;6.00;2.22;;;;;;;38.86;26.32;101050.91;5113349;27;20052;-72
2021/08/10 08:21:58;;;;;;;5.43;2.13;;;;;;;38.96;26.46;101041.59;5113547;27;20032;-73
2021/08/10 08:24:26;;;;;;;4.53;2.10;;;;;;;38.97;25.72;101037.81;5113753;28;20081;-69
2021/08/10 08:26:55;;;;;;;4.45;2.10;;;;;;;39.05;25.25;101048.09;5113457;28;20038;-71
2021/08/10 08:29:23;;;;;;;6.68;2.15;;;;;;;39.01;26.07;101038.38;5113461;28;20074;-67
2021/08/10 08:31:51;;;;;;;5.03;2.10;;;;;;;39.03;25.73;101044.63;5113215;27;20067;-68
2021/08/10 08:34:18;;;;;;;4.18;1.90;;;;;;;39.10;26.09;101047.63;5112016;28;20036;-68
2021/08/10 08:36:46;;;;;;;6.07;2.00;;;;;;;39.23;25.74;101037.97;5109495;27;20435;-67
2021/08/10 08:39:14;;;;;;;4.10;1.98;;;;;;;39.23;26.02;101042.63;5120321;27;20502;-67
2021/08/10 08:41:42;;;;;;;5.25;2.65;;;;;;;39.24;26.24;101036.06;5113519;28;20060;-67
2021/08/10 08:44:12;;;;;;;7.15;1.98;;;;;;;39.29;26.24;101029.03;5113652;28;20127;-67
2021/08/10 08:46:40;;;;;;;4.90;2.20;;;;;;;39.18;26.28;101034.78;5113228;28;20058;-67
2021/08/10 08:49:08;;;;;;;8.07;1.92;;;;;;;39.27;26.41;101027.44;5112378;28;20035;-67
2021/08/10 08:51:37;;;;;;;11.95;3.00;;;;;;;39.31;26.26;101028.91;5112562;28;20039;-69
2021/08/10 08:54:05;;;;;;;8.32;2.58;;;;;;;39.34;26.14;101023.91;5112759;27;20040;-69
2021/08/10 08:56:32;;;;;;;6.85;2.60;;;;;;;39.42;26.47;101021.28;5112853;28;20066;-69
2021/08/10 08:59:00;;;;;;;6.10;2.10;;;;;;;39.51;26.11;101019.47;5112963;27;20538;-68
2021/08/10 09:01:29;;;;;;;4.50;1.73;;;;;;;39.61;25.96;101011.09;5112450;27;20107;-68
2021/08/10 09:03:57;;;;;;;10.25;2.13;;;;;;;39.65;25.94;101015.31;5111753;27;20039;-68
2021/08/10 09:06:24;;;;;;;4.07;1.70;;;;;;;39.80;25.06;101011.84;5112483;28;20038;-68
2021/08/10 09:08:55;;;;;;;2.90;1.67;;;;;;;39.79;25.13;101023.00;5112919;28;20081;-68
2021/08/10 09:11:24;;;;;;;6.18;1.85;;;;;;;39.81;24.92;101027.41;5112715;28;20084;-68
2021/08/10 09:14:12;;;;;;;6.97;1.98;;;;;;;39.83;24.79;101019.81;5104426;28;20063;-68
2021/08/10 09:17:00;;;;;;;3.35;1.52;;;;;;;39.89;24.25;101012.78;5112963;28;20096;-68
2021/08/10 09:19:41;;;;;;;6.05;1.80;;;;;;;39.97;23.86;101021.16;5111687;28;20089;-69
2021/08/10 09:22:21;;;;;;;7.85;1.90;;;;;;;40.09;23.70;101011.56;5112439;28;20049;-67
2021/08/10 09:24:52;;;;;;;3.47;1.58;;;;;;;40.06;23.96;101014.66;5111961;27;20069;-68
2021/08/10 09:27:31;;;;;;;5.25;1.67;;;;;;;40.02;23.97;101016.00;5111991;27;20047;-68
2021/08/10 09:30:01;;;;;;;4.82;1.58;;;;;;;40.06;23.71;101014.66;5111288;28;20097;-69
2021/08/10 09:32:30;;;;;;;3.35;1.83;;;;;;;39.41;23.47;101011.25;5109723;28;20032;-68
2021/08/10 09:35:17;;;;;;;5.88;2.17;;;;;;;39.31;24.34;101009.56;5111813;28;20050;-69
2021/08/10 09:38:04;;;;;;;4.97;1.58;;;;;;;39.43;24.12;101011.97;5111887;27;20123;-68
2021/08/10 09:40:33;;;;;;;7.72;1.90;;;;;;;39.54;24.00;100997.03;5112400;28;20054;-68
2021/08/10 09:43:27;;;;;;;4.63;1.77;;;;;;;39.66;23.54;101005.94;5111896;28;20044;-68
2021/08/10 09:46:14;;;;;;;6.63;1.83;;;;;;;39.60;23.43;101001.94;5111842;27;20036;-68
2021/08/10 09:48:53;;;;;;;5.28;1.60;;;;;;;39.59;22.84;100999.31;5112423;28;20433;-68
2021/08/10 09:51:23;;;;;;;2.28;1.25;;;;;;;39.49;23.15;100998.53;5111995;28;20567;-68
2021/08/10 09:53:59;;;;;;;4.57;1.65;;;;;;;39.57;22.68;100991.19;5111421;28;20032;-69
2021/08/10 09:56:47;;;;;;;2.40;1.48;;;;;;;39.58;23.13;100981.00;5111629;28;20044;-69
2021/08/10 09:59:16;;;;;;;5.38;1.48;;;;;;;39.49;23.21;100980.06;5111867;28;20115;-67
2021/08/10 10:01:47;;;;;;;4.93;1.60;;;;;;;39.35;23.54;100981.44;5112002;28;20364;-69
2021/08/10 10:04:36;;;;;;;3.25;1.90;;;;;;;39.43;23.61;100978.78;5091157;28;20051;-69
2021/08/10 10:07:11;;;;;;;4.32;1.70;;;;;;;39.47;24.26;100981.22;5111790;28;20047;-69
2021/08/10 10:09:39;;;;;;;8.27;1.80;;;;;;;39.49;23.99;100974.53;5111810;28;20522;-69
2021/08/10 10:12:09;;;;;;;8.57;1.73;;;;;;;39.42;23.82;100970.66;5111705;28;20089;-68
2021/08/10 10:14:38;;;;;;;7.60;2.05;;;;;;;38.98;23.51;100961.34;5111380;28;20044;-68
2021/08/10 10:17:08;;;;;;;5.43;1.75;;;;;;;38.90;23.82;100963.97;5111814;28;20035;-68
2021/08/10 10:19:39;;;;;;;4.93;1.70;;;;;;;39.00;23.72;100965.66;5111906;28;20035;-68
2021/08/10 10:22:16;;;;;;;3.72;1.70;;;;;;;38.98;23.85;100967.72;5111892;28;20117;-68
2021/08/10 10:24:51;;;;;;;6.75;1.60;;;;;;;39.00;23.85;100962.91;5111217;28;20040;-68
2021/08/10 10:27:19;;;;;;;6.35;1.80;;;;;;;38.97;23.53;100967.88;5111851;28;20032;-68
2021/08/10 10:29:49;;;;;;;3.58;1.40;;;;;;;38.92;nan;100967.47;5111499;28;20495;-68
2021/08/10 10:32:18;;;;;;;5.65;1.77;;;;;;;38.77;24.10;100966.22;5111194;28;20035;-68
2021/08/10 10:34:49;;;;;;;4.32;1.85;;;;;;;38.66;24.50;100978.34;5111384;28;20027;-67
2021/08/10 10:37:21;;;;;;;3.28;1.75;;;;;;;38.55;25.00;100975.75;5111724;28;20043;-68
2021/08/10 10:39:53;;;;;;;4.88;1.70;;;;;;;38.60;24.86;100967.88;5110982;28;20053;-69
2021/08/10 10:42:21;;;;;;;6.40;1.80;;;;;;;38.65;24.88;100973.84;5111429;28;20405;-69
2021/08/10 10:44:51;;;;;;;8.25;2.13;;;;;;;38.64;24.45;100970.19;5111171;28;20032;-67
2021/08/10 10:47:37;;;;;;;3.25;1.98;;;;;;;38.28;24.81;100971.00;5110315;28;20036;-69
2021/08/10 10:50:20;;;;;;;3.92;1.70;;;;;;;38.31;24.54;100972.63;5108293;28;20050;-69
2021/08/10 10:53:05;;;;;;;4.57;2.10;;;;;;;38.36;24.32;100965.63;5111342;28;20487;-67
2021/08/10 10:55:43;;;;;;;2.83;1.60;;;;;;;38.49;24.39;100979.13;5111088;28;20059;-68
2021/08/10 10:58:31;;;;;;;3.88;1.80;;;;;;;38.53;25.01;100981.41;5111498;28;20392;-69
2021/08/10 11:01:16;;;;;;;5.10;2.00;;;;;;;38.36;25.14;100975.78;5110697;28;20515;-69
2021/08/10 11:04:09;;;;;;;7.03;2.60;;;;;;;38.38;25.12;100969.13;5111586;28;20055;-68
2021/08/10 11:06:43;;;;;;;8.30;2.55;;;;;;;38.49;24.79;100971.72;5108100;28;20040;-69
2021/08/10 11:09:31;;;;;;;8.30;3.80;;;;;;;38.57;25.04;100968.19;5111608;28;20457;-68
2021/08/10 11:11:59;;;;;;;5.40;2.10;;;;;;;38.46;24.95;100962.84;5110755;28;20119;-68
2021/08/10 11:14:57;;;;;;;7.38;3.03;;;;;;;38.46;24.93;100957.31;5111146;28;20075;-68
2021/08/10 11:17:25;;;;;;;4.55;1.92;;;;;;;38.38;24.76;100958.06;5110765;28;20153;-67
2021/08/10 11:19:53;;;;;;;6.53;1.90;;;;;;;38.44;25.09;100953.84;5111079;28;20043;-68
2021/08/10 11:22:43;;;;;;;4.25;1.80;;;;;;;38.63;24.97;100960.19;5103640;28;20043;-68
2021/08/10 11:25:23;;;;;;;4.82;1.85;;;;;;;38.59;24.68;100950.47;5111224;28;20044;-68
2021/08/10 11:27:51;;;;;;;3.15;1.85;;;;;;;38.41;25.05;100948.59;5114252;27;20118;-67
2021/08/10 11:30:55;;;;;;;4.80;1.80;;;;;;;38.31;24.89;100939.50;5114542;27;20039;-67
2021/08/10 11:33:40;;;;;;;;;;;;;;;38.31;24.88;100945.91;5113861;28;20371;-68
2021/08/10 11:36:22;;;;;;;5.78;2.00;;;;;;;38.39;24.89;100937.75;5113254;28;19924;-68
2021/08/10 11:39:12;;;;;;;5.97;1.83;;;;;;;38.24;25.25;100939.25;5114258;28;20437;-67
2021/08/10 11:41:41;;;;;;;3.33;2.00;;;;;;;38.27;25.17;100936.16;5111220;27;20035;-69